Menu       Strona główna   X °C

Select another period ( hide this area )

Units Period Custom range Directly to
Metric English Both
Daily Weekly Monthly Yearly
use both date-selectors for a custom range
previous Day
With this date
Daily Summary for Monday 26 February 2024
Time Temp. ( °F ) Dew pt. ( °F ) Wind ( mph ) From Gust ( mph ) Pressure ( in ) Humid.( % ) Rainrate ( in )
High61.2 42.8 6.0 SE ( 200/226 ) 7.0 30.06 72 -
Average50.0 33.2 1.9 SE #109/121 2.3 30.00 54 -
Low43.2 28.4 -   0.0 30.00 40 -
Daily Tabular details for Monday 26 February 2024
Time Temp. ( °F ) Dew pt. ( °F ) Wind ( mph ) From Gust ( mph ) Pressure ( in ) Humid.( % ) Rainrate ( in )
00:04 52.0 28.8 3.0 SE 3.0 30.03 41 -
00:09 52.0 28.4 2.0 SE 3.0 30.02 40 -
00:14 52.0 29.1 2.0 SE 3.0 30.02 41 -
00:19 51.8 28.9 3.0 SE 3.0 30.02 41 -
00:24 51.8 30.0 2.0 SE 2.0 30.02 43 -
00:29 51.6 28.8 3.0 SE 3.0 30.02 41 -
00:34 52.2 28.8 3.0 SE 5.0 30.02 41 -
00:39 52.2 28.6 2.0 SE 2.0 30.03 40 -
00:44 52.2 28.6 2.0 SE 2.0 30.02 40 -
00:49 52.0 29.5 2.0 SE 2.0 30.02 42 -
00:54 51.4 29.1 1.0 SE 1.0 30.02 42 -
00:59 51.4 28.6 1.0 SE 1.0 30.03 41 -
01:04 51.4 29.1 2.0 SE 2.0 30.02 42 -
01:09 51.8 28.9 2.0 SE 2.0 30.03 41 -
01:14 52.3 31.1 3.0 SE 3.0 30.02 44 -
01:19 52.2 29.3 3.0 SE 3.0 30.03 42 -
01:24 52.3 29.1 3.0 SE 3.0 30.02 41 -
01:29 52.3 29.8 3.0 SE 3.0 30.02 42 -
01:34 52.0 29.7 2.0 SE 2.0 30.02 42 -
01:39 52.3 29.3 2.0 SE 2.0 30.02 41 -
01:44 52.3 29.8 3.0 SE 3.0 30.02 42 -
01:49 51.8 29.5 2.0 SE 3.0 30.02 42 -
01:54 51.8 30.4 3.0 SE 3.0 30.02 44 -
01:59 51.6 29.7 2.0 SE 3.0 30.02 43 -
02:04 51.6 29.8 2.0 SE 2.0 30.02 43 -
02:09 51.8 30.0 2.0 SE 2.0 30.02 43 -
02:14 51.8 30.0 2.0 SE 2.0 30.02 43 -
02:19 51.8 30.0 1.0 SE 2.0 30.02 43 -
02:24 51.6 32.4 1.0 SE 1.0 30.03 48 -
02:29 50.9 30.6 2.0 SE 2.0 30.03 46 -
02:34 50.4 32.4 2.0 SE 2.0 30.03 50 -
02:39 50.2 31.8 1.0 SE 1.0 30.04 49 -
02:44 49.5 30.6 2.0 SE 2.0 30.04 48 -
02:49 48.9 30.6 1.0 SE 1.0 30.05 49 -
02:54 49.1 30.2 3.0 SE 3.0 30.06 48 -
02:59 49.1 32.5 1.0 SE 2.0 30.05 54 -
03:04 48.7 33.3 2.0 SE 2.0 30.05 55 -
03:09 48.7 32.9 1.0 SE 2.0 30.05 54 -
03:14 47.3 32.4 2.0 SE 3.0 30.05 56 -
03:19 46.6 31.3 1.0 SE 1.0 30.05 55 -
03:24 46.2 31.5 1.0 SE 2.0 30.05 56 -
03:29 45.9 31.5 2.0 SE 2.0 30.04 57 -
03:34 46.4 32.4 1.0 SE 1.0 30.04 58 -
03:39 45.9 31.1   Calm 1.0 30.04 56 -
03:44 45.9 30.7 1.0 SE 1.0 30.04 56 -
03:49 45.9 32.4 1.0 SE 1.0 30.05 59 -
03:54 47.5 31.6 2.0 SE 2.0 30.04 58 -
03:59 47.7 32.7 1.0 SE 2.0 30.04 56 -
04:04 48.0 33.3 1.0 SE 2.0 30.03 57 -
04:09 50.9 30.7 3.0 SE 3.0 30.03 50 -
04:14 51.3 32.9 2.0 SE 3.0 30.03 51 -
04:19 50.4 33.4 2.0 SE 2.0 30.03 52 -
04:24 50.9 33.4 3.0 SE 3.0 30.02 52 -
04:29 51.3 31.5 3.0 SE 3.0 30.02 47 -
04:34 51.3 32.5 3.0 SE 3.0 30.02 49 -
04:39 51.1 31.5 3.0 SE 3.0 30.02 47 -
04:44 51.1 32.0 3.0 SE 3.0 30.02 48 -
04:49 51.1 32.9 2.0 SE 3.0 30.02 52 -
04:54 49.1 31.8 2.0 SE 2.0 30.02 51 -
04:59 49.1 31.8 3.0 SE 3.0 30.02 51 -
05:04 49.8 33.4 3.0 SE 3.0 30.02 54 -
05:09 49.1 31.8 2.0 SE 2.0 30.02 51 -
05:14 49.1 32.7 3.0 SE 3.0 30.02 53 -
05:19 50.4 32.4 3.0 SE 3.0 30.02 52 -
05:24 50.5 32.5 3.0 SE 3.0 30.01 50 -
05:29 50.9 34.2 2.0 SE 2.0 30.01 53 -
05:34 49.8 33.3 1.0 SE 2.0 30.01 54 -
05:39 48.9 33.3 1.0 SE 1.0 30.00 55 -
05:44 48.0 32.7 1.0 SE 2.0 30.01 56 -
05:49 47.3 32.9   Calm 1.0 30.01 57 -
05:54 46.8 32.4 1.0 SE 1.0 30.01 57 -
05:59 46.8 33.1 1.0 SE 1.0 30.01 59 -
06:04 46.6 32.9 1.0 SE 2.0 30.01 60 -
06:09 45.9 32.9 1.0 SE 2.0 30.01 61 -
06:14 45.1 34.5 1.0 SE 1.0 30.01 66 -
06:19 46.2 32.5 3.0 SE 3.0 30.01 62 -
06:24 46.6 33.1 1.0 SE 3.0 30.01 59 -
06:29 46.4 32.2 1.0 SE 2.0 30.02 58 -
06:34 46.4 32.9 1.0 SE 1.0 30.01 59 -
06:39 46.8 32.4 2.0 SE 2.0 30.01 57 -
06:44 46.8 32.7 2.0 SE 2.0 30.01 58 -
06:49 47.3 32.4 2.0 SE 2.0 30.01 56 -
06:54 47.3 32.4 3.0 SE 3.0 30.01 56 -
06:59 47.5 33.3 1.0 SE 3.0 30.01 58 -
07:04 46.8 33.8 1.0 SE 1.0 30.01 61 -
07:09 46.6 34.3 1.0 SE 1.0 30.01 62 -
07:14 46.0 33.6   Calm   30.01 63 -
07:19 45.1 33.3   Calm   30.01 64 -
07:24 44.4 34.0 1.0 SE 1.0 30.01 67 -
07:29 44.1 33.8   Calm   30.01 67 -
07:34 44.1 33.4 1.0 SE 1.0 30.01 66 -
07:39 43.9 34.9 1.0 SE 1.0 30.01 71 -
07:44 43.3 34.3 1.0 SE 2.0 30.01 71 -
07:49 43.2 34.5 1.0 SE 2.0 30.01 72 -
07:54 43.2 34.0 1.0 SE 1.0 30.01 70 -
07:59 43.7 33.8 1.0 SE 2.0 30.01 69 -
08:04 43.9 35.1   Calm 1.0 30.01 71 -
08:09 44.2 35.4 2.0 SE 2.0 30.01 71 -
08:14 44.8 35.1 1.0 SE 1.0 30.01 70 -
08:19 45.7 34.9 1.0 SE 1.0 30.01 67 -
08:24 46.8 36.3 2.0 SE 2.0 30.01 67 -
08:29 48.7 37.0 1.0 SE 2.0 30.01 64 -
08:34 48.9 37.2 1.0 SE 2.0 30.01 64 -
08:39 49.6 37.2 2.0 SE 2.0 30.02 63 -
08:44 50.0 37.6 1.0 SE 2.0 30.02 62 -
08:49 50.5 38.8 1.0 SE 1.0 30.02 64 -
08:54 51.3 40.6 1.0 SE 1.0 30.01 67 -
08:59 53.6 42.1 2.0 SE 2.0 30.02 65 -
09:04 53.1 41.4 1.0 SE 2.0 30.02 65 -
09:09 54.1 42.3 1.0 SE 2.0 30.02 64 -
09:14 55.9 41.4 3.0 SE 3.0 30.01 60 -
09:19 57.9 42.8 2.0 SE 3.0 30.02 58 -
09:24 59.0 42.8 3.0 SE 5.0 30.02 57 -
09:29 59.5 42.4 1.0 SE 2.0 30.02 53 -
09:34 59.7 41.5 4.0 SE 7.0 30.02 51 -
09:39 60.1 39.0 3.0 West 7.0 30.02 46 -
09:44 60.6 38.8 3.0 West 5.0 30.02 45 -
09:49 60.8 39.2 5.0 West 7.0 30.02 45 -
09:54 61.0 39.0 4.0 South 7.0 30.02 44 -
09:59 61.2 39.6 5.0 SSW 5.0 30.02 45 -
10:04 61.0 39.0 6.0 SW 7.0 30.02 44 -

Download your copy of this data-set  from WeatherUnderground

Our weather-data as stored at Weather Underground

Original Weather Page

My Ham Radio Page